Focsani, Romania
Current Conditions -  °F | °C
As of 7:00 AM on Sunday 21 Dec 2014 (Local Time) from LRBC Reporting Station
Clear Clear  
Wind Chill: 37°   Ceiling: Unl
Heat Index: 43°   Visibility: 6mi
Dew Point: 32°   Wind: 12mph
Humidity: 66%   Direction: 240°WSW
Pressure: 29.91"   Gusts: NA
Location:  45.7°N, 27.18°E
Report Text: LRBC 210400Z 24010KT CAVOK 06/00 Q1013 R16/35//94
Loading
Personal Weather Stations






























Interactive Weather Map New forecast layout! Learn more

10-Day Weather Forecast

Advertisements
Track Severe Weather on mobile